Time;durP1;ratioP1;P1;durP2;ratioP2;P2;SDS_P1;SDS_P2;PMS_P1;PMS_P2;Temp;Humidity;BMP_temperature;BMP_pressure;BME280_temperature;BME280_humidity;BME280_pressure;Samples;Min_cycle;Max_cycle;Signal;HPM_P1;HPM_P2
2023/07/10 00:00:57;;;;;;;6.75;6.15;;;22.10;99.90;;;;;;5019947;28;20028;-56
2023/07/10 00:03:22;;;;;;;7.97;6.05;;;22.10;99.90;;;;;;5028021;28;20029;-58
2023/07/10 00:05:48;;;;;;;7.07;6.38;;;22.00;99.90;;;;;;5018610;28;20112;-56
2023/07/10 00:08:14;;;;;;;12.45;7.18;;;22.00;99.90;;;;;;5035800;28;20021;-58
2023/07/10 00:10:39;;;;;;;7.20;6.03;;;22.00;99.90;;;;;;4999514;28;20041;-58
2023/07/10 00:13:07;;;;;;;6.90;6.30;;;22.00;99.90;;;;;;5033894;28;20039;-57
2023/07/10 00:15:33;;;;;;;8.45;6.68;;;22.00;99.90;;;;;;5025561;28;20072;-58
2023/07/10 00:17:58;;;;;;;6.88;6.15;;;22.00;99.90;;;;;;5023720;28;20054;-57
2023/07/10 00:20:26;;;;;;;7.63;6.15;;;22.00;99.90;;;;;;5035683;28;20023;-58
2023/07/10 00:22:52;;;;;;;7.88;5.28;;;22.00;99.90;;;;;;5017854;28;20548;-58
2023/07/10 00:25:19;;;;;;;7.03;6.32;;;22.00;99.90;;;;;;5031721;28;20034;-58
2023/07/10 00:27:48;;;;;;;6.32;5.72;;;22.00;99.90;;;;;;5024662;28;20383;-57
2023/07/10 00:30:15;;;;;;;6.85;6.25;;;22.00;99.90;;;;;;5023076;28;20060;-57
2023/07/10 00:32:43;;;;;;;6.80;6.20;;;22.00;99.90;;;;;;5030057;28;20033;-57
2023/07/10 00:35:09;;;;;;;7.78;6.32;;;22.00;99.90;;;;;;5016266;28;20466;-56
2023/07/10 00:37:34;;;;;;;8.20;6.50;;;22.00;99.90;;;;;;5034871;28;20041;-56
2023/07/10 00:40:00;;;;;;;7.32;6.13;;;21.90;99.90;;;;;;5019654;28;20134;-56
2023/07/10 00:42:26;;;;;;;10.32;6.68;;;21.80;99.90;;;;;;5026242;28;20021;-55
2023/07/10 00:44:57;;;;;;;7.13;6.43;;;21.80;99.90;;;;;;5032113;28;20080;-56
2023/07/10 00:47:27;;;;;;;7.43;6.28;;;21.70;99.90;;;;;;5018328;28;20837;-57
2023/07/10 00:50:00;;;;;;;8.75;6.28;;;21.60;99.90;;;;;;5038860;28;20041;-56
2023/07/10 00:52:33;;;;;;;7.72;7.10;;;21.60;99.90;;;;;;5017171;28;20034;-57
2023/07/10 00:55:00;;;;;;;7.10;6.40;;;21.50;99.90;;;;;;5035272;28;20076;-56
2023/07/10 00:57:36;;;;;;;8.75;7.07;;;21.60;99.90;;;;;;5029729;28;20506;-55
2023/07/10 01:00:14;;;;;;;7.88;6.97;;;21.50;99.90;;;;;;5025967;28;20036;-56
2023/07/10 01:02:40;;;;;;;7.40;6.70;;;21.50;99.90;;;;;;5035292;28;20028;-57
2023/07/10 01:05:06;;;;;;;7.60;6.45;;;21.50;99.90;;;;;;5016711;28;20014;-57
2023/07/10 01:07:46;;;;;;;9.50;7.05;;;21.40;99.90;;;;;;5037929;28;20041;-57
2023/07/10 01:10:12;;;;;;;11.82;6.82;;;21.40;99.90;;;;;;5026718;28;20026;-56
2023/07/10 01:12:40;;;;;;;12.40;5.95;;;21.30;99.90;;;;;;5031554;28;20031;-57
2023/07/10 01:15:06;;;;;;;8.70;7.07;;;21.30;99.90;;;;;;5033603;28;20498;-55
2023/07/10 01:17:33;;;;;;;6.85;6.22;;;21.30;99.90;;;;;;5021014;28;20026;-57
2023/07/10 01:20:24;;;;;;;10.20;6.38;;;21.30;99.90;;;;;;5041571;28;20029;-57
2023/07/10 01:22:50;;;;;;;7.22;6.30;;;21.30;99.90;;;;;;5033662;28;20095;-55
2023/07/10 01:25:16;;;;;;;6.70;6.07;;;21.20;99.90;;;;;;5023486;28;20022;-55
2023/07/10 01:27:41;;;;;;;9.57;6.88;;;21.20;99.90;;;;;;5030765;28;20494;-57
2023/07/10 01:30:22;;;;;;;10.90;6.90;;;21.10;99.90;;;;;;5032436;28;20033;-56
2023/07/10 01:32:49;;;;;;;;;;;21.10;99.90;;;;;;5026530;28;20498;-57
2023/07/10 01:35:17;;;;;;;7.43;6.82;;;21.00;99.90;;;;;;5039530;28;19908;-56
2023/07/10 01:37:43;;;;;;;7.72;6.97;;;21.00;99.90;;;;;;5021369;28;20598;-56
2023/07/10 01:40:14;;;;;;;6.95;6.25;;;21.00;99.90;;;;;;5035868;28;20029;-55
2023/07/10 01:42:39;;;;;;;;;;;20.90;99.90;;;;;;5029162;28;20427;-57
2023/07/10 01:45:11;;;;;;;8.50;6.60;;;20.80;99.90;;;;;;5027240;28;19912;-55
2023/07/10 01:47:37;;;;;;;8.48;6.55;;;20.80;99.90;;;;;;5035436;28;20026;-57
2023/07/10 01:50:03;;;;;;;9.80;7.25;;;20.80;99.90;;;;;;5016079;28;20121;-59
2023/07/10 01:52:29;;;;;;;9.40;5.95;;;20.70;99.90;;;;;;5039104;28;20034;-57
2023/07/10 01:54:54;;;;;;;8.15;7.30;;;20.80;99.90;;;;;;5027686;28;20041;-57
2023/07/10 01:57:24;;;;;;;7.07;6.38;;;20.70;99.90;;;;;;5033463;28;20060;-57
2023/07/10 01:59:50;;;;;;;9.13;6.97;;;20.70;99.90;;;;;;5033980;28;20134;-57
2023/07/10 02:02:16;;;;;;;6.80;6.20;;;20.70;99.90;;;;;;5018993;28;20021;-55
2023/07/10 02:04:42;;;;;;;8.68;7.07;;;20.60;99.90;;;;;;5037588;28;20075;-55
2023/07/10 02:07:07;;;;;;;8.60;6.93;;;20.60;99.90;;;;;;5021952;28;20030;-56
2023/07/10 02:09:33;;;;;;;7.25;6.22;;;20.40;99.90;;;;;;5035571;28;20129;-57
2023/07/10 02:11:59;;;;;;;7.47;6.78;;;20.30;99.90;;;;;;5032331;28;20038;-57
2023/07/10 02:14:25;;;;;;;8.63;7.70;;;20.20;99.90;;;;;;5018946;28;20034;-56
2023/07/10 02:16:51;;;;;;;7.80;6.97;;;20.20;99.90;;;;;;5038116;28;20683;-56
2023/07/10 02:19:19;;;;;;;7.97;7.15;;;20.10;99.90;;;;;;5021006;28;20072;-56
2023/07/10 02:21:45;;;;;;;8.52;7.30;;;19.90;99.90;;;;;;5028970;28;20034;-57
2023/07/10 02:24:11;;;;;;;9.38;7.18;;;19.70;99.90;;;;;;5030365;28;20022;-57
2023/07/10 02:26:36;;;;;;;11.90;7.45;;;19.50;99.90;;;;;;5022303;28;20468;-56
2023/07/10 02:29:02;;;;;;;8.55;7.75;;;19.40;99.90;;;;;;5038343;28;20041;-56
2023/07/10 02:31:28;;;;;;;10.93;7.40;;;19.30;99.90;;;;;;5018893;28;20063;-58
2023/07/10 02:33:55;;;;;;;13.68;7.30;;;19.20;99.90;;;;;;5032207;28;20025;-57
2023/07/10 02:36:22;;;;;;;9.00;7.15;;;19.20;99.90;;;;;;5028523;28;20037;-56
2023/07/10 02:38:48;;;;;;;7.00;6.40;;;19.10;99.90;;;;;;5020003;28;20060;-56
2023/07/10 02:41:13;;;;;;;7.45;6.70;;;19.10;99.90;;;;;;5033531;28;20029;-56
2023/07/10 02:43:39;;;;;;;7.95;7.15;;;19.10;99.90;;;;;;5014658;28;20029;-57
2023/07/10 02:46:04;;;;;;;7.97;7.28;;;19.10;99.90;;;;;;5033336;28;20082;-55
2023/07/10 02:48:30;;;;;;;8.85;7.28;;;19.10;99.90;;;;;;5027546;28;20026;-57
2023/07/10 02:50:56;;;;;;;8.20;7.00;;;19.10;99.90;;;;;;5024755;28;20049;-55
2023/07/10 02:53:22;;;;;;;7.65;6.97;;;19.20;99.90;;;;;;5033910;28;20039;-56
2023/07/10 02:55:48;;;;;;;9.10;7.43;;;19.20;99.90;;;;;;5016707;28;20029;-54
2023/07/10 02:58:14;;;;;;;8.38;7.35;;;19.20;99.90;;;;;;5030693;28;20041;-57
2023/07/10 03:00:40;;;;;;;8.43;7.63;;;19.30;99.90;;;;;;5024793;28;20032;-57
2023/07/10 03:03:05;;;;;;;8.07;6.97;;;19.30;99.90;;;;;;5022509;28;20022;-55
2023/07/10 03:05:31;;;;;;;11.40;7.88;;;19.40;99.90;;;;;;5033101;28;20017;-58
2023/07/10 03:07:56;;;;;;;11.18;7.45;;;19.40;99.90;;;;;;5014632;28;20053;-57
2023/07/10 03:10:23;;;;;;;7.85;7.05;;;19.50;99.90;;;;;;5032913;28;20410;-57
2023/07/10 03:12:48;;;;;;;8.15;7.47;;;19.50;99.90;;;;;;5022888;28;20025;-56
2023/07/10 03:15:14;;;;;;;9.70;6.50;;;19.60;99.90;;;;;;5026702;28;20039;-57
2023/07/10 03:17:41;;;;;;;7.72;6.85;;;19.60;99.90;;;;;;5031843;28;20026;-57
2023/07/10 03:20:08;;;;;;;11.65;7.70;;;19.60;99.90;;;;;;5017353;28;20097;-56
2023/07/10 03:22:34;;;;;;;7.60;7.00;;;19.60;99.90;;;;;;5033772;28;20043;-55
2023/07/10 03:25:00;;;;;;;9.05;7.30;;;19.50;99.90;;;;;;5021582;28;20030;-56
2023/07/10 03:27:27;;;;;;;7.50;6.72;;;19.50;99.90;;;;;;5023764;28;20025;-57
2023/07/10 03:29:53;;;;;;;10.57;8.27;;;19.60;99.90;;;;;;5026045;28;20045;-56
2023/07/10 03:32:19;;;;;;;9.60;7.35;;;19.60;99.90;;;;;;5016863;28;20035;-56
2023/07/10 03:34:45;;;;;;;7.97;7.20;;;19.60;99.90;;;;;;5035690;28;20025;-57
2023/07/10 03:37:11;;;;;;;8.27;6.80;;;19.60;99.90;;;;;;5019859;28;20508;-56
2023/07/10 03:39:36;;;;;;;8.43;7.28;;;19.70;99.90;;;;;;5028969;28;20060;-56
2023/07/10 03:42:02;;;;;;;9.93;6.80;;;19.80;99.90;;;;;;5028341;28;20049;-57
2023/07/10 03:44:28;;;;;;;8.48;6.85;;;19.80;99.90;;;;;;5018802;28;20057;-57
2023/07/10 03:46:54;;;;;;;7.68;6.65;;;19.80;99.90;;;;;;5037204;28;20033;-57
2023/07/10 03:49:19;;;;;;;6.97;6.28;;;19.90;99.90;;;;;;5017590;28;20034;-57
2023/07/10 03:51:45;;;;;;;10.18;6.65;;;20.00;99.90;;;;;;5030709;28;20513;-56
2023/07/10 03:54:11;;;;;;;7.60;6.90;;;20.10;99.90;;;;;;5027166;28;20075;-56
2023/07/10 03:56:36;;;;;;;9.18;6.78;;;20.20;99.90;;;;;;5018815;28;20030;-57
2023/07/10 03:59:05;;;;;;;6.95;6.25;;;20.30;99.90;;;;;;5035735;28;20076;-56
2023/07/10 04:01:31;;;;;;;10.00;6.85;;;20.40;99.90;;;;;;5016322;28;20029;-56
2023/07/10 04:03:56;;;;;;;7.20;6.45;;;20.50;99.90;;;;;;5029353;28;20026;-56
2023/07/10 04:06:22;;;;;;;7.18;6.35;;;20.50;99.90;;;;;;5024581;28;20026;-57
2023/07/10 04:08:48;;;;;;;9.77;6.32;;;20.50;99.90;;;;;;5020196;28;20029;-56
2023/07/10 04:11:17;;;;;;;7.93;7.13;;;20.50;99.90;;;;;;5036224;28;20092;-56
2023/07/10 04:13:43;;;;;;;8.30;6.80;;;20.50;99.90;;;;;;5014564;28;20037;-57
2023/07/10 04:16:15;;;;;;;7.82;6.90;;;20.40;99.90;;;;;;5030375;28;20026;-55
2023/07/10 04:18:41;;;;;;;12.55;7.60;;;20.30;99.90;;;;;;5020793;28;20055;-56
2023/07/10 04:21:11;;;;;;;9.95;7.20;;;20.10;99.90;;;;;;5026757;28;20059;-56
2023/07/10 04:23:37;;;;;;;9.15;7.13;;;20.00;99.90;;;;;;5040720;28;20034;-56
2023/07/10 04:26:02;;;;;;;8.27;6.95;;;19.80;99.90;;;;;;5023128;28;20127;-57
2023/07/10 04:28:28;;;;;;;8.70;7.30;;;19.70;99.90;;;;;;5039304;28;20071;-56
2023/07/10 04:30:54;;;;;;;9.93;7.10;;;19.60;99.90;;;;;;5027687;28;20033;-57
2023/07/10 04:33:20;;;;;;;8.70;6.88;;;19.50;99.90;;;;;;5033044;28;20120;-57
2023/07/10 04:35:57;;;;;;;9.05;7.40;;;19.50;99.90;;;;;;5035995;28;20112;-56
2023/07/10 04:38:27;;;;;;;10.50;8.57;;;19.50;99.90;;;;;;5023326;28;20018;-57
2023/07/10 04:40:59;;;;;;;8.75;7.60;;;19.40;99.90;;;;;;5041733;28;20064;-57
2023/07/10 04:43:26;;;;;;;7.57;6.88;;;19.50;99.90;;;;;;5025507;28;20025;-57
2023/07/10 04:45:55;;;;;;;8.30;7.45;;;19.60;99.90;;;;;;5035363;28;20040;-58
2023/07/10 04:48:23;;;;;;;10.80;7.97;;;19.60;99.90;;;;;;5033438;28;20083;-58
2023/07/10 04:50:50;;;;;;;8.85;7.95;;;19.70;99.90;;;;;;5027457;28;20033;-58
2023/07/10 04:53:17;;;;;;;8.73;7.82;;;19.80;99.90;;;;;;5044039;28;20159;-56
2023/07/10 04:55:43;;;;;;;8.43;7.63;;;19.90;99.90;;;;;;5019092;28;20021;-55
2023/07/10 04:58:09;;;;;;;20.30;9.35;;;20.00;99.90;;;;;;5037671;28;20068;-57
2023/07/10 05:00:36;;;;;;;9.38;8.43;;;20.10;99.90;;;;;;5028627;28;20041;-58
2023/07/10 05:03:06;;;;;;;10.85;8.00;;;20.20;99.90;;;;;;5027194;28;20029;-56
2023/07/10 05:05:32;;;;;;;8.50;7.70;;;20.30;99.90;;;;;;5037601;28;20048;-57
2023/07/10 05:07:58;;;;;;;8.57;7.78;;;20.40;99.90;;;;;;5019897;28;20096;-56
2023/07/10 05:10:24;;;;;;;8.75;7.93;;;20.50;99.90;;;;;;5038121;28;20129;-57
2023/07/10 05:12:50;;;;;;;9.65;8.73;;;20.60;99.90;;;;;;5027739;28;20112;-57
2023/07/10 05:15:16;;;;;;;9.57;8.15;;;20.80;99.90;;;;;;5027207;28;20033;-55
2023/07/10 05:17:42;;;;;;;9.10;8.07;;;20.90;99.90;;;;;;5036894;28;20068;-55
2023/07/10 05:20:08;;;;;;;11.10;7.90;;;21.00;99.90;;;;;;5018083;28;20060;-56
2023/07/10 05:22:35;;;;;;;7.97;6.78;;;21.00;99.90;;;;;;5038071;28;20120;-57
2023/07/10 05:25:01;;;;;;;8.65;7.28;;;21.10;99.90;;;;;;5023643;28;20516;-56
2023/07/10 05:27:26;;;;;;;9.35;8.52;;;21.20;99.90;;;;;;5032557;28;20025;-57
2023/07/10 05:29:52;;;;;;;8.75;7.85;;;21.20;99.90;;;;;;5029596;28;20073;-57
2023/07/10 05:32:18;;;;;;;10.50;8.40;;;21.30;99.90;;;;;;5016539;28;20534;-57
2023/07/10 05:34:43;;;;;;;8.85;8.05;;;21.30;99.90;;;;;;5040306;28;20373;-56
2023/07/10 05:37:09;;;;;;;14.18;7.68;;;21.30;99.90;;;;;;5021276;28;20041;-56
2023/07/10 05:39:35;;;;;;;9.35;8.52;;;21.30;99.90;;;;;;5029570;28;20033;-58
2023/07/10 05:42:01;;;;;;;9.05;8.25;;;21.40;99.90;;;;;;5029720;28;20442;-58
2023/07/10 05:44:26;;;;;;;8.27;7.50;;;21.40;99.90;;;;;;5021405;28;20021;-56
2023/07/10 05:46:55;;;;;;;9.65;8.65;;;21.40;99.90;;;;;;5037693;28;20022;-58
2023/07/10 05:49:24;;;;;;;9.68;7.18;;;21.40;99.90;;;;;;5018718;28;20037;-57
2023/07/10 05:51:53;;;;;;;8.75;7.47;;;21.40;99.90;;;;;;5031923;28;20541;-55
2023/07/10 05:54:20;;;;;;;8.02;7.32;;;21.40;99.90;;;;;;5029078;28;20025;-57
2023/07/10 05:56:47;;;;;;;8.23;7.43;;;21.40;99.90;;;;;;5020613;28;20370;-57
2023/07/10 05:59:14;;;;;;;9.35;8.02;;;21.40;99.90;;;;;;5037522;28;20033;-56
2023/07/10 06:01:39;;;;;;;8.35;7.55;;;21.40;99.90;;;;;;5016941;28;20066;-57
2023/07/10 06:04:05;;;;;;;9.07;8.27;;;21.50;99.90;;;;;;5016260;28;20065;-58
2023/07/10 06:06:31;;;;;;;9.60;8.63;;;21.50;99.90;;;;;;5017030;28;20564;-57
2023/07/10 06:08:56;;;;;;;9.77;8.73;;;21.70;99.90;;;;;;5022302;28;20112;-57
2023/07/10 06:11:22;;;;;;;9.15;8.05;;;21.80;99.90;;;;;;5038801;28;20380;-57
2023/07/10 06:13:47;;;;;;;9.05;7.90;;;21.90;99.90;;;;;;5017282;28;20030;-57
2023/07/10 06:16:14;;;;;;;8.77;8.07;;;22.00;99.90;;;;;;5032752;28;20025;-58
2023/07/10 06:18:40;;;;;;;9.50;8.45;;;22.00;99.90;;;;;;5027055;28;20038;-56
2023/07/10 06:21:07;;;;;;;9.02;7.95;;;22.00;99.90;;;;;;5026075;28;20061;-55
2023/07/10 06:23:33;;;;;;;9.88;8.30;;;22.10;99.90;;;;;;5035298;28;20627;-57
2023/07/10 06:25:59;;;;;;;9.13;8.20;;;22.20;99.90;;;;;;5018267;28;20040;-56
2023/07/10 06:28:25;;;;;;;9.98;7.70;;;22.20;99.90;;;;;;5036272;28;20039;-56
2023/07/10 06:31:06;;;;;;;9.30;8.50;;;22.30;99.90;;;;;;5024346;28;20603;-57
2023/07/10 06:33:32;;;;;;;10.40;8.80;;;22.50;99.90;;;;;;5028401;28;20571;-56
2023/07/10 06:35:59;;;;;;;8.95;7.47;;;22.60;99.90;;;;;;5030430;28;20049;-57
2023/07/10 06:38:24;;;;;;;8.85;7.68;;;22.70;99.90;;;;;;5019335;28;20026;-57
2023/07/10 06:40:51;;;;;;;10.48;7.47;;;22.90;99.90;;;;;;5038208;28;20084;-56
2023/07/10 06:43:18;;;;;;;8.40;7.60;;;23.00;99.90;;;;;;5021230;28;20044;-59
2023/07/10 06:45:44;;;;;;;9.57;8.43;;;23.20;99.90;;;;;;5027978;28;20029;-57
2023/07/10 06:48:11;;;;;;;9.23;7.88;;;23.40;99.90;;;;;;5024377;28;20080;-58
2023/07/10 06:50:37;;;;;;;7.72;6.97;;;23.60;99.90;;;;;;5019985;28;20048;-56
2023/07/10 06:53:03;;;;;;;8.25;7.57;;;23.70;99.90;;;;;;5036102;28;20063;-57
2023/07/10 06:55:30;;;;;;;7.78;7.07;;;23.70;99.90;;;;;;5014874;28;20052;-58
2023/07/10 06:57:55;;;;;;;7.35;6.75;;;23.90;99.90;;;;;;5032616;28;20056;-58
2023/07/10 07:00:21;;;;;;;8.93;6.72;;;23.90;99.90;;;;;;5024202;28;20534;-58
2023/07/10 07:02:47;;;;;;;7.55;6.82;;;24.00;99.90;;;;;;5022003;28;20370;-58
2023/07/10 07:05:13;;;;;;;7.60;6.75;;;24.20;99.90;;;;;;5037141;28;20092;-58
2023/07/10 07:07:39;;;;;;;8.15;6.25;;;24.30;99.90;;;;;;5015572;28;20034;-57
2023/07/10 07:10:08;;;;;;;7.07;6.45;;;24.40;97.20;;;;;;5034511;28;20025;-56
2023/07/10 07:12:34;;;;;;;7.65;6.93;;;24.60;97.40;;;;;;5024790;28;20033;-57
2023/07/10 07:14:59;;;;;;;9.27;6.70;;;24.80;95.20;;;;;;5023178;28;20502;-59
2023/07/10 07:17:25;;;;;;;7.50;6.85;;;25.00;93.10;;;;;;5036705;28;20024;-57
2023/07/10 07:19:51;;;;;;;5.72;5.15;;;25.10;92.50;;;;;;5018349;28;20056;-57
2023/07/10 07:22:17;;;;;;;6.55;5.95;;;25.30;92.10;;;;;;5032770;28;20485;-57
2023/07/10 07:24:43;;;;;;;7.53;6.45;;;25.50;91.50;;;;;;5023256;28;20505;-58
2023/07/10 07:27:08;;;;;;;6.90;6.25;;;25.70;90.90;;;;;;5019179;28;20445;-56
2023/07/10 07:29:34;;;;;;;8.75;6.20;;;26.00;89.20;;;;;;5031622;28;20112;-57
2023/07/10 07:32:00;;;;;;;7.13;5.47;;;26.20;87.00;;;;;;5016649;28;20415;-58
2023/07/10 07:34:26;;;;;;;8.80;5.93;;;26.60;87.00;;;;;;5033040;28;20141;-58
2023/07/10 07:36:53;;;;;;;10.88;6.07;;;27.00;86.40;;;;;;5020730;28;20561;-58
2023/07/10 07:39:20;;;;;;;7.03;5.90;;;27.30;83.60;;;;;;5025904;28;20446;-57
2023/07/10 07:41:47;;;;;;;6.68;6.03;;;27.60;80.80;;;;;;5029101;28;20037;-58
2023/07/10 07:44:13;;;;;;;13.13;6.47;;;27.70;77.10;;;;;;5018166;28;20026;-57
2023/07/10 07:46:39;;;;;;;6.68;5.95;;;27.80;76.90;;;;;;5034403;28;20125;-57
2023/07/10 07:49:04;;;;;;;6.90;6.13;;;27.90;77.30;;;;;;5020183;28;20157;-57
2023/07/10 07:51:30;;;;;;;6.25;5.68;;;28.00;76.70;;;;;;5024054;28;20116;-58
2023/07/10 07:54:25;;;;;;;7.78;6.00;;;28.20;76.00;;;;;;5030488;28;20038;-56
2023/07/10 07:56:51;;;;;;;5.78;5.30;;;28.40;74.70;;;;;;5012294;28;20036;-58
2023/07/10 07:59:18;;;;;;;11.70;6.22;;;28.50;73.80;;;;;;5035118;28;20021;-58
2023/07/10 08:01:45;;;;;;;8.07;5.68;;;28.60;73.10;;;;;;5016961;28;20022;-57
2023/07/10 08:04:11;;;;;;;10.88;6.30;;;28.80;71.70;;;;;;5031822;28;20032;-57
2023/07/10 08:06:36;;;;;;;7.35;5.97;;;29.00;70.20;;;;;;5023978;28;20030;-58
2023/07/10 08:09:03;;;;;;;10.32;5.75;;;28.90;71.30;;;;;;5022614;28;20014;-57
2023/07/10 08:11:29;;;;;;;6.82;5.80;;;29.00;70.70;;;;;;5033331;28;20021;-58
2023/07/10 08:13:54;;;;;;;7.10;6.40;;;28.80;68.80;;;;;;5016697;28;20592;-58
2023/07/10 08:16:20;;;;;;;8.73;6.22;;;28.70;70.50;;;;;;5030718;28;20040;-59
2023/07/10 08:18:46;;;;;;;7.88;5.97;;;28.50;71.10;;;;;;5020636;28;20045;-59
2023/07/10 08:21:13;;;;;;;6.80;6.03;;;28.40;70.80;;;;;;5022789;28;20369;-58
2023/07/10 08:23:39;;;;;;;8.13;6.80;;;28.20;71.70;;;;;;5033022;28;20026;-59
2023/07/10 08:26:06;;;;;;;12.75;6.82;;;28.10;73.00;;;;;;5018442;28;20014;-58
2023/07/10 08:28:31;;;;;;;9.25;6.40;;;27.90;73.60;;;;;;5036839;28;20028;-59
2023/07/10 08:30:57;;;;;;;6.70;5.82;;;27.80;74.60;;;;;;5022356;28;20101;-59
2023/07/10 08:33:23;;;;;;;8.07;6.97;;;27.60;75.30;;;;;;5023462;28;20817;-58
2023/07/10 08:36:04;;;;;;;9.15;6.22;;;27.50;75.50;;;;;;5028891;28;20054;-58
2023/07/10 08:38:30;;;;;;;;;;;27.40;75.00;;;;;;5017867;28;20113;-58
2023/07/10 08:41:04;;;;;;;7.50;6.00;;;27.40;75.30;;;;;;5039392;28;19909;-57
2023/07/10 08:43:38;;;;;;;8.93;6.28;;;27.40;74.70;;;;;;5020113;28;20076;-58
2023/07/10 08:46:10;;;;;;;11.10;6.53;;;27.50;76.20;;;;;;5030289;28;20037;-58
2023/07/10 08:48:42;;;;;;;16.10;7.00;;;27.70;75.80;;;;;;5024290;28;20033;-58
2023/07/10 08:51:37;;;;;;;7.15;6.45;;;27.90;76.10;;;;;;5021172;28;20112;-58
2023/07/10 08:54:06;;;;;;;8.25;6.68;;;28.10;75.70;;;;;;5027219;28;20125;-58
2023/07/10 08:56:46;;;;;;;13.05;6.72;;;28.20;75.10;;;;;;5019485;28;20137;-57
2023/07/10 08:59:21;;;;;;;12.00;6.32;;;28.40;75.10;;;;;;5035416;28;20029;-59
2023/07/10 09:01:48;;;;;;;7.53;6.03;;;28.60;74.50;;;;;;5043252;28;20041;-58
2023/07/10 09:04:16;;;;;;;7.25;5.35;;;28.80;74.60;;;;;;5015865;28;20026;-59
2023/07/10 09:06:54;;;;;;;10.95;5.78;;;29.00;72.60;;;;;;5026892;28;20049;-58
2023/07/10 09:09:45;;;;;;;6.55;5.43;;;29.20;71.60;;;;;;5029964;28;20033;-57
2023/07/10 09:12:34;;;;;;;9.20;5.88;;;29.30;70.70;;;;;;5026689;28;20025;-57
2023/07/10 09:15:19;;;;;;;7.45;5.35;;;29.40;71.30;;;;;;5030939;28;20495;-59
2023/07/10 09:17:47;;;;;;;6.70;4.80;;;29.30;70.60;;;;;;5021608;28;20520;-58
2023/07/10 09:20:14;;;;;;;10.02;4.03;;;29.30;70.10;;;;;;5038921;28;20029;-57
2023/07/10 09:22:49;;;;;;;4.85;3.72;;;29.20;70.80;;;;;;5019842;28;20526;-59
2023/07/10 09:25:15;;;;;;;5.30;3.70;;;29.20;70.10;;;;;;5020486;28;20056;-57
2023/07/10 09:27:42;;;;;;;7.35;4.10;;;29.30;71.20;;;;;;5031564;28;20401;-59
2023/07/10 09:30:47;;;;;;;8.63;4.10;;;29.40;71.50;;;;;;5031512;28;20513;-55
2023/07/10 09:33:13;;;;;;;5.43;4.03;;;29.60;70.10;;;;;;5026128;28;20036;-56
2023/07/10 09:35:42;;;;;;;4.88;3.63;;;29.70;69.80;;;;;;5038039;28;20390;-59
2023/07/10 09:38:14;;;;;;;9.02;4.05;;;29.80;68.70;;;;;;5014947;28;20076;-59
2023/07/10 09:40:45;;;;;;;7.78;3.55;;;29.80;68.80;;;;;;5016312;28;20038;-59
2023/07/10 09:43:17;;;;;;;4.35;3.25;;;29.90;69.30;;;;;;5034931;28;20538;-58
2023/07/10 09:45:48;;;;;;;5.88;3.53;;;30.00;68.20;;;;;;5026170;28;20022;-57
2023/07/10 09:48:36;;;;;;;5.97;3.78;;;30.10;67.60;;;;;;5026700;28;20684;-59
2023/07/10 09:51:07;;;;;;;5.43;3.17;;;30.20;67.30;;;;;;5029089;28;20045;-58
2023/07/10 09:53:34;;;;;;;5.88;3.00;;;30.20;65.90;;;;;;5018661;28;20371;-58
2023/07/10 09:55:59;;;;;;;6.75;3.55;;;30.30;67.10;;;;;;5037035;28;20014;-58
2023/07/10 09:58:26;;;;;;;4.65;3.58;;;30.40;65.90;;;;;;5015723;28;20034;-58
2023/07/10 10:00:52;;;;;;;4.50;3.88;;;30.50;66.60;;;;;;5032437;28;20516;-59
2023/07/10 10:03:25;;;;;;;4.55;3.33;;;30.50;65.90;;;;;;5029833;28;20032;-58
2023/07/10 10:05:56;;;;;;;6.72;3.88;;;30.50;65.80;;;;;;5019401;28;20025;-58
2023/07/10 10:08:25;;;;;;;;;;;30.60;66.50;;;;;;5036548;28;20048;-58
2023/07/10 10:11:06;;;;;;;6.85;3.50;;;30.60;66.80;;;;;;5020455;28;20617;-59
2023/07/10 10:13:56;;;;;;;6.03;3.28;;;30.80;66.70;;;;;;5038062;28;20055;-59
2023/07/10 10:16:30;;;;;;;5.43;3.78;;;30.90;65.50;;;;;;5019170;28;20061;-58
2023/07/10 10:18:55;;;;;;;5.07;3.40;;;31.00;65.20;;;;;;5031214;28;20041;-59
2023/07/10 10:21:22;;;;;;;3.67;3.30;;;31.10;65.10;;;;;;5027765;28;20041;-58
2023/07/10 10:23:57;;;;;;;8.38;3.78;;;31.00;64.40;;;;;;5023297;28;20026;-58
2023/07/10 10:26:51;;;;;;;5.78;3.80;;;31.00;64.30;;;;;;5036756;28;20021;-58
2023/07/10 10:29:53;;;;;;;6.63;3.22;;;31.00;64.90;;;;;;5015491;28;20921;-59
2023/07/10 10:32:23;;;;;;;4.45;3.10;;;31.00;63.40;;;;;;5036934;28;20385;-58
2023/07/10 10:35:16;;;;;;;6.27;3.27;;;31.00;63.60;;;;;;5016122;28;20026;-57
2023/07/10 10:37:51;;;;;;;4.07;3.00;;;31.00;63.20;;;;;;5016365;28;20046;-58
2023/07/10 10:40:48;;;;;;;4.30;3.33;;;31.00;62.10;;;;;;5033198;28;20644;-59
2023/07/10 10:43:22;;;;;;;3.88;2.90;;;31.00;63.70;;;;;;5023198;28;20037;-58
2023/07/10 10:46:11;;;;;;;4.15;2.75;;;31.10;60.60;;;;;;5029700;28;20489;-59
2023/07/10 10:48:54;;;;;;;4.35;3.72;;;31.30;61.70;;;;;;5025921;28;20036;-59
2023/07/10 10:51:30;;;;;;;4.88;3.15;;;31.40;61.60;;;;;;5028659;28;20031;-58
2023/07/10 10:54:18;;;;;;;5.43;2.58;;;31.50;62.60;;;;;;5021603;28;20025;-59
2023/07/10 10:57:04;;;;;;;3.00;2.70;;;31.60;57.70;;;;;;5034144;28;20068;-59
2023/07/10 10:59:29;;;;;;;3.30;2.63;;;31.50;59.10;;;;;;5016707;28;20110;-58
2023/07/10 11:02:16;;;;;;;3.60;2.50;;;31.30;57.80;;;;;;5038630;28;20099;-59
2023/07/10 11:04:47;;;;;;;8.32;2.28;;;31.00;56.10;;;;;;5036485;28;20033;-59
2023/07/10 11:07:21;;;;;;;7.43;2.63;;;30.90;56.60;;;;;;5020314;28;20036;-58
2023/07/10 11:10:06;;;;;;;6.00;2.45;;;30.80;56.50;;;;;;5031455;28;20052;-58
2023/07/10 11:12:33;;;;;;;4.63;2.53;;;30.70;57.20;;;;;;5026784;28;20592;-59
2023/07/10 11:15:18;;;;;;;5.95;2.42;;;30.80;57.80;;;;;;5023537;28;20025;-59
2023/07/10 11:17:48;;;;;;;2.80;2.40;;;30.80;56.80;;;;;;5032340;28;20037;-58
2023/07/10 11:20:15;;;;;;;4.22;2.50;;;30.80;57.30;;;;;;5015980;28;20378;-58
2023/07/10 11:22:56;;;;;;;4.97;2.65;;;30.90;58.00;;;;;;5034181;28;20033;-58
2023/07/10 11:25:34;;;;;;;4.97;2.80;;;31.00;58.00;;;;;;5018842;28;20069;-59
2023/07/10 11:28:20;;;;;;;5.20;2.60;;;31.20;58.90;;;;;;5029038;28;20044;-58
2023/07/10 11:30:49;;;;;;;3.55;2.55;;;31.40;58.30;;;;;;5023987;28;20034;-58
2023/07/10 11:33:20;;;;;;;6.68;2.67;;;31.40;57.30;;;;;;5027464;28;20639;-59
2023/07/10 11:36:10;;;;;;;5.95;3.22;;;31.40;57.90;;;;;;5033129;28;20723;-57
2023/07/10 11:38:36;;;;;;;5.00;2.55;;;31.10;57.90;;;;;;5019777;28;20033;-59
2023/07/10 11:41:23;;;;;;;4.28;2.55;;;30.90;58.00;;;;;;5036257;28;20130;-58
2023/07/10 11:43:53;;;;;;;3.92;2.65;;;30.70;58.80;;;;;;5014905;28;20037;-59
2023/07/10 11:46:25;;;;;;;3.50;2.78;;;30.60;59.20;;;;;;5020535;28;20026;-58
2023/07/10 11:49:10;;;;;;;4.15;3.30;;;30.70;59.60;;;;;;5030620;28;20031;-58
2023/07/10 11:51:39;;;;;;;6.47;3.17;;;30.70;59.30;;;;;;5024452;28;20100;-59
2023/07/10 11:54:05;;;;;;;4.38;3.13;;;30.80;59.90;;;;;;5024576;28;20171;-58
2023/07/10 11:56:31;;;;;;;4.05;3.63;;;30.80;60.20;;;;;;5036064;28;20124;-59
2023/07/10 11:59:14;;;;;;;4.00;3.40;;;30.80;59.70;;;;;;5019125;28;20048;-59
2023/07/10 12:01:41;;;;;;;8.23;3.58;;;30.60;60.80;;;;;;5016303;28;20042;-58
2023/07/10 12:04:14;;;;;;;8.10;4.00;;;30.60;60.60;;;;;;5034669;28;20108;-59
2023/07/10 12:06:44;;;;;;;10.25;3.45;;;30.60;59.50;;;;;;5028592;28;20022;-59
2023/07/10 12:09:09;;;;;;;4.45;3.92;;;30.70;59.50;;;;;;5024123;28;20064;-59
2023/07/10 12:11:39;;;;;;;3.70;3.40;;;30.90;59.80;;;;;;5034776;28;20049;-59
2023/07/10 12:14:17;;;;;;;3.92;3.63;;;31.00;57.50;;;;;;5017095;28;20059;-58
2023/07/10 12:17:10;;;;;;;3.60;3.30;;;31.20;59.40;;;;;;5015208;28;20040;-58
2023/07/10 12:19:37;;;;;;;3.53;3.22;;;31.40;56.20;;;;;;5037565;28;20038;-58
2023/07/10 12:22:20;;;;;;;3.70;3.40;;;31.40;55.20;;;;;;5025984;28;20028;-58
2023/07/10 12:24:54;;;;;;;7.00;3.72;;;31.50;55.40;;;;;;5031106;28;20017;-56
2023/07/10 12:27:21;;;;;;;3.50;3.20;;;31.50;55.90;;;;;;5027236;28;20018;-59
2023/07/10 12:29:52;;;;;;;4.13;3.38;;;31.70;55.00;;;;;;5022708;28;20123;-59
2023/07/10 12:32:17;;;;;;;;;;;31.70;54.70;;;;;;5040992;28;20013;-56
2023/07/10 12:34:43;;;;;;;3.85;3.38;;;31.90;55.40;;;;;;5017456;28;19972;-58
2023/07/10 12:37:11;;;;;;;3.65;3.35;;;32.00;55.00;;;;;;5031160;28;20493;-58
2023/07/10 12:39:37;;;;;;;4.75;3.80;;;32.10;54.00;;;;;;5024781;28;20046;-56
2023/07/10 12:42:20;;;;;;;4.40;4.05;;;32.20;54.30;;;;;;5023346;28;20056;-58
2023/07/10 12:44:47;;;;;;;5.70;3.90;;;31.90;52.60;;;;;;5032889;28;20026;-57
2023/07/10 12:47:14;;;;;;;4.18;3.83;;;31.80;54.10;;;;;;5022092;28;20021;-59
2023/07/10 12:49:52;;;;;;;7.05;4.05;;;31.80;53.20;;;;;;5020413;28;20121;-58
2023/07/10 12:52:18;;;;;;;7.38;3.90;;;31.90;53.20;;;;;;5018839;28;20363;-59
2023/07/10 12:54:50;;;;;;;4.43;4.00;;;31.80;53.60;;;;;;5031985;28;20021;-59
2023/07/10 12:57:22;;;;;;;5.15;4.38;;;31.60;53.20;;;;;;5030437;28;20112;-58
2023/07/10 12:59:54;;;;;;;4.65;4.22;;;31.50;54.20;;;;;;5021394;28;20025;-57